sensor_id;sensor_type;location;lat;lon;timestamp;P1;durP1;ratioP1;P2;durP2;ratioP2
63818;SDS011;49970;54.976;73.248;2023-07-31T00:02:03;11.23;;;8.30;;
63818;SDS011;49970;54.976;73.248;2023-07-31T00:04:30;16.77;;;7.60;;
63818;SDS011;49970;54.976;73.248;2023-07-31T00:06:56;8.98;;;7.55;;
63818;SDS011;49970;54.976;73.248;2023-07-31T00:09:22;11.15;;;7.78;;
63818;SDS011;49970;54.976;73.248;2023-07-31T00:11:48;10.63;;;8.88;;
63818;SDS011;49970;54.976;73.248;2023-07-31T00:14:15;18.25;;;8.15;;
63818;SDS011;49970;54.976;73.248;2023-07-31T00:16:41;11.68;;;8.95;;
63818;SDS011;49970;54.976;73.248;2023-07-31T00:19:07;12.25;;;8.25;;
63818;SDS011;49970;54.976;73.248;2023-07-31T00:21:33;10.20;;;8.43;;
63818;SDS011;49970;54.976;73.248;2023-07-31T00:23:59;16.45;;;8.30;;
63818;SDS011;49970;54.976;73.248;2023-07-31T00:26:25;9.95;;;8.18;;
63818;SDS011;49970;54.976;73.248;2023-07-31T00:28:52;13.18;;;8.13;;
63818;SDS011;49970;54.976;73.248;2023-07-31T00:31:18;13.23;;;7.93;;
63818;SDS011;49970;54.976;73.248;2023-07-31T00:33:44;19.02;;;8.43;;
63818;SDS011;49970;54.976;73.248;2023-07-31T00:36:10;11.43;;;8.25;;
63818;SDS011;49970;54.976;73.248;2023-07-31T00:38:36;11.38;;;8.80;;
63818;SDS011;49970;54.976;73.248;2023-07-31T00:41:02;11.45;;;7.72;;
63818;SDS011;49970;54.976;73.248;2023-07-31T00:43:29;15.15;;;8.63;;
63818;SDS011;49970;54.976;73.248;2023-07-31T00:45:55;14.65;;;8.48;;
63818;SDS011;49970;54.976;73.248;2023-07-31T00:48:21;18.02;;;9.30;;
63818;SDS011;49970;54.976;73.248;2023-07-31T00:50:48;22.25;;;9.02;;
63818;SDS011;49970;54.976;73.248;2023-07-31T00:53:14;11.93;;;8.13;;
63818;SDS011;49970;54.976;73.248;2023-07-31T00:55:40;16.60;;;9.07;;
63818;SDS011;49970;54.976;73.248;2023-07-31T00:58:07;19.58;;;9.18;;
63818;SDS011;49970;54.976;73.248;2023-07-31T01:00:33;19.77;;;9.65;;
63818;SDS011;49970;54.976;73.248;2023-07-31T01:03:00;18.00;;;8.75;;
63818;SDS011;49970;54.976;73.248;2023-07-31T01:08:31;16.65;;;9.45;;
63818;SDS011;49970;54.976;73.248;2023-07-31T01:14:04;23.98;;;10.15;;
63818;SDS011;49970;54.976;73.248;2023-07-31T01:16:31;16.77;;;9.23;;
63818;SDS011;49970;54.976;73.248;2023-07-31T01:18:57;27.17;;;9.60;;
63818;SDS011;49970;54.976;73.248;2023-07-31T01:28:47;12.40;;;7.95;;
63818;SDS011;49970;54.976;73.248;2023-07-31T01:31:25;20.25;;;9.18;;
63818;SDS011;49970;54.976;73.248;2023-07-31T01:33:55;16.38;;;8.82;;
63818;SDS011;49970;54.976;73.248;2023-07-31T01:36:25;15.55;;;7.80;;
63818;SDS011;49970;54.976;73.248;2023-07-31T01:38:52;22.73;;;8.38;;
63818;SDS011;49970;54.976;73.248;2023-07-31T01:41:18;18.23;;;7.88;;
63818;SDS011;49970;54.976;73.248;2023-07-31T01:43:45;29.33;;;8.50;;
63818;SDS011;49970;54.976;73.248;2023-07-31T01:46:12;22.52;;;8.18;;
63818;SDS011;49970;54.976;73.248;2023-07-31T01:48:39;21.42;;;8.05;;
63818;SDS011;49970;54.976;73.248;2023-07-31T01:51:06;18.83;;;7.30;;
63818;SDS011;49970;54.976;73.248;2023-07-31T01:53:32;14.88;;;8.18;;
63818;SDS011;49970;54.976;73.248;2023-07-31T01:55:59;19.02;;;7.78;;
63818;SDS011;49970;54.976;73.248;2023-07-31T01:58:25;11.65;;;7.40;;
63818;SDS011;49970;54.976;73.248;2023-07-31T02:00:51;22.23;;;7.90;;
63818;SDS011;49970;54.976;73.248;2023-07-31T02:03:17;18.23;;;7.45;;
63818;SDS011;49970;54.976;73.248;2023-07-31T02:05:47;26.85;;;7.10;;
63818;SDS011;49970;54.976;73.248;2023-07-31T02:08:15;27.05;;;7.03;;
63818;SDS011;49970;54.976;73.248;2023-07-31T02:10:42;20.35;;;6.82;;
63818;SDS011;49970;54.976;73.248;2023-07-31T02:13:10;7.65;;;6.60;;
63818;SDS011;49970;54.976;73.248;2023-07-31T02:15:36;11.82;;;7.25;;
63818;SDS011;49970;54.976;73.248;2023-07-31T02:18:02;17.83;;;7.15;;
63818;SDS011;49970;54.976;73.248;2023-07-31T02:20:29;13.07;;;6.60;;
63818;SDS011;49970;54.976;73.248;2023-07-31T02:22:55;21.10;;;6.35;;
63818;SDS011;49970;54.976;73.248;2023-07-31T02:25:23;22.00;;;7.93;;
63818;SDS011;49970;54.976;73.248;2023-07-31T02:27:49;23.92;;;6.60;;
63818;SDS011;49970;54.976;73.248;2023-07-31T02:30:16;22.42;;;6.60;;
63818;SDS011;49970;54.976;73.248;2023-07-31T02:32:43;26.95;;;7.00;;
63818;SDS011;49970;54.976;73.248;2023-07-31T02:35:10;25.90;;;7.03;;
63818;SDS011;49970;54.976;73.248;2023-07-31T02:37:41;25.02;;;7.13;;
63818;SDS011;49970;54.976;73.248;2023-07-31T02:40:08;21.38;;;7.65;;
63818;SDS011;49970;54.976;73.248;2023-07-31T02:42:35;14.98;;;7.22;;
63818;SDS011;49970;54.976;73.248;2023-07-31T02:45:01;11.57;;;7.05;;
63818;SDS011;49970;54.976;73.248;2023-07-31T02:47:28;16.55;;;7.13;;
63818;SDS011;49970;54.976;73.248;2023-07-31T02:49:54;7.63;;;6.65;;
63818;SDS011;49970;54.976;73.248;2023-07-31T02:52:21;13.23;;;7.22;;
63818;SDS011;49970;54.976;73.248;2023-07-31T02:54:47;18.83;;;7.38;;
63818;SDS011;49970;54.976;73.248;2023-07-31T02:57:14;16.85;;;7.55;;
63818;SDS011;49970;54.976;73.248;2023-07-31T02:59:41;13.57;;;7.22;;
63818;SDS011;49970;54.976;73.248;2023-07-31T03:02:07;15.25;;;7.20;;
63818;SDS011;49970;54.976;73.248;2023-07-31T03:04:33;9.27;;;6.28;;
63818;SDS011;49970;54.976;73.248;2023-07-31T03:07:00;20.85;;;7.15;;
63818;SDS011;49970;54.976;73.248;2023-07-31T03:09:26;21.63;;;7.07;;
63818;SDS011;49970;54.976;73.248;2023-07-31T03:11:52;19.70;;;7.07;;
63818;SDS011;49970;54.976;73.248;2023-07-31T03:14:19;16.90;;;6.32;;
63818;SDS011;49970;54.976;73.248;2023-07-31T03:16:45;9.80;;;6.20;;
63818;SDS011;49970;54.976;73.248;2023-07-31T03:19:12;19.98;;;5.88;;
63818;SDS011;49970;54.976;73.248;2023-07-31T03:21:38;18.70;;;6.80;;
63818;SDS011;49970;54.976;73.248;2023-07-31T03:24:04;12.27;;;6.10;;
63818;SDS011;49970;54.976;73.248;2023-07-31T03:26:31;21.92;;;6.13;;
63818;SDS011;49970;54.976;73.248;2023-07-31T03:28:58;17.50;;;6.05;;
63818;SDS011;49970;54.976;73.248;2023-07-31T03:31:25;12.80;;;5.88;;
63818;SDS011;49970;54.976;73.248;2023-07-31T03:33:52;19.50;;;5.32;;
63818;SDS011;49970;54.976;73.248;2023-07-31T03:36:18;15.10;;;5.47;;
63818;SDS011;49970;54.976;73.248;2023-07-31T03:38:45;7.88;;;6.00;;
63818;SDS011;49970;54.976;73.248;2023-07-31T03:41:12;15.85;;;6.05;;
63818;SDS011;49970;54.976;73.248;2023-07-31T03:43:38;49.17;;;7.90;;
63818;SDS011;49970;54.976;73.248;2023-07-31T03:46:04;15.50;;;5.90;;
63818;SDS011;49970;54.976;73.248;2023-07-31T03:48:30;26.33;;;6.38;;
63818;SDS011;49970;54.976;73.248;2023-07-31T03:50:57;7.82;;;5.35;;
63818;SDS011;49970;54.976;73.248;2023-07-31T03:53:23;11.05;;;5.63;;
63818;SDS011;49970;54.976;73.248;2023-07-31T03:55:50;13.50;;;5.88;;
63818;SDS011;49970;54.976;73.248;2023-07-31T03:58:16;8.40;;;5.47;;
63818;SDS011;49970;54.976;73.248;2023-07-31T04:00:42;13.85;;;5.70;;
63818;SDS011;49970;54.976;73.248;2023-07-31T04:03:08;8.27;;;5.32;;
63818;SDS011;49970;54.976;73.248;2023-07-31T04:05:37;25.00;;;5.30;;
63818;SDS011;49970;54.976;73.248;2023-07-31T04:08:05;5.80;;;5.40;;
63818;SDS011;49970;54.976;73.248;2023-07-31T04:10:34;7.82;;;5.80;;
63818;SDS011;49970;54.976;73.248;2023-07-31T04:13:00;14.55;;;6.22;;
63818;SDS011;49970;54.976;73.248;2023-07-31T04:15:26;23.10;;;6.18;;
63818;SDS011;49970;54.976;73.248;2023-07-31T04:17:52;24.05;;;6.78;;
63818;SDS011;49970;54.976;73.248;2023-07-31T04:20:19;6.55;;;5.75;;
63818;SDS011;49970;54.976;73.248;2023-07-31T04:22:45;37.10;;;8.27;;
63818;SDS011;49970;54.976;73.248;2023-07-31T04:25:11;17.23;;;7.20;;
63818;SDS011;49970;54.976;73.248;2023-07-31T04:27:37;20.98;;;6.95;;
63818;SDS011;49970;54.976;73.248;2023-07-31T04:30:03;16.63;;;6.50;;
63818;SDS011;49970;54.976;73.248;2023-07-31T04:32:30;26.52;;;7.32;;
63818;SDS011;49970;54.976;73.248;2023-07-31T04:34:56;14.82;;;7.07;;
63818;SDS011;49970;54.976;73.248;2023-07-31T04:37:23;21.00;;;7.10;;
63818;SDS011;49970;54.976;73.248;2023-07-31T04:39:49;22.63;;;6.97;;
63818;SDS011;49970;54.976;73.248;2023-07-31T04:42:15;13.15;;;6.78;;
63818;SDS011;49970;54.976;73.248;2023-07-31T04:44:41;23.65;;;6.97;;
63818;SDS011;49970;54.976;73.248;2023-07-31T04:47:07;25.88;;;7.03;;
63818;SDS011;49970;54.976;73.248;2023-07-31T04:49:33;18.63;;;8.48;;
63818;SDS011;49970;54.976;73.248;2023-07-31T04:52:01;24.20;;;9.90;;
63818;SDS011;49970;54.976;73.248;2023-07-31T04:54:28;24.08;;;8.18;;
63818;SDS011;49970;54.976;73.248;2023-07-31T04:56:54;15.25;;;6.45;;
63818;SDS011;49970;54.976;73.248;2023-07-31T04:59:20;16.25;;;6.72;;
63818;SDS011;49970;54.976;73.248;2023-07-31T05:01:46;26.42;;;7.80;;
63818;SDS011;49970;54.976;73.248;2023-07-31T05:04:13;20.38;;;7.07;;
63818;SDS011;49970;54.976;73.248;2023-07-31T05:06:40;14.25;;;7.15;;
63818;SDS011;49970;54.976;73.248;2023-07-31T05:09:06;27.63;;;8.13;;
63818;SDS011;49970;54.976;73.248;2023-07-31T05:11:33;35.88;;;10.07;;
63818;SDS011;49970;54.976;73.248;2023-07-31T05:13:59;62.40;;;13.68;;
63818;SDS011;49970;54.976;73.248;2023-07-31T05:16:31;68.80;;;14.80;;
63818;SDS011;49970;54.976;73.248;2023-07-31T05:18:58;64.38;;;12.75;;
63818;SDS011;49970;54.976;73.248;2023-07-31T05:21:24;58.25;;;13.00;;
63818;SDS011;49970;54.976;73.248;2023-07-31T05:23:50;40.10;;;11.35;;
63818;SDS011;49970;54.976;73.248;2023-07-31T05:26:16;46.60;;;11.90;;
63818;SDS011;49970;54.976;73.248;2023-07-31T05:28:43;51.33;;;12.15;;
63818;SDS011;49970;54.976;73.248;2023-07-31T05:31:09;59.65;;;12.35;;
63818;SDS011;49970;54.976;73.248;2023-07-31T05:33:35;60.60;;;12.68;;
63818;SDS011;49970;54.976;73.248;2023-07-31T05:36:01;53.67;;;12.40;;
63818;SDS011;49970;54.976;73.248;2023-07-31T05:38:28;45.60;;;12.15;;
63818;SDS011;49970;54.976;73.248;2023-07-31T05:40:55;55.88;;;12.95;;
63818;SDS011;49970;54.976;73.248;2023-07-31T05:43:21;50.65;;;12.15;;
63818;SDS011;49970;54.976;73.248;2023-07-31T05:45:47;52.95;;;12.40;;
63818;SDS011;49970;54.976;73.248;2023-07-31T05:48:14;52.53;;;12.57;;
63818;SDS011;49970;54.976;73.248;2023-07-31T05:50:40;57.83;;;11.80;;
63818;SDS011;49970;54.976;73.248;2023-07-31T05:53:06;45.33;;;11.93;;
63818;SDS011;49970;54.976;73.248;2023-07-31T05:55:33;37.85;;;11.18;;
63818;SDS011;49970;54.976;73.248;2023-07-31T05:58:00;45.55;;;11.93;;
63818;SDS011;49970;54.976;73.248;2023-07-31T06:00:26;32.90;;;10.70;;
63818;SDS011;49970;54.976;73.248;2023-07-31T06:02:53;41.40;;;11.10;;
63818;SDS011;49970;54.976;73.248;2023-07-31T06:05:19;45.70;;;13.23;;
63818;SDS011;49970;54.976;73.248;2023-07-31T06:07:46;35.35;;;11.02;;
63818;SDS011;49970;54.976;73.248;2023-07-31T06:10:12;65.18;;;12.38;;
63818;SDS011;49970;54.976;73.248;2023-07-31T06:12:39;42.75;;;10.80;;
63818;SDS011;49970;54.976;73.248;2023-07-31T06:15:05;41.50;;;11.45;;
63818;SDS011;49970;54.976;73.248;2023-07-31T06:17:32;45.53;;;11.95;;
63818;SDS011;49970;54.976;73.248;2023-07-31T06:19:58;42.63;;;11.38;;
63818;SDS011;49970;54.976;73.248;2023-07-31T06:22:24;54.33;;;11.02;;
63818;SDS011;49970;54.976;73.248;2023-07-31T06:24:51;47.90;;;11.80;;
63818;SDS011;49970;54.976;73.248;2023-07-31T06:27:17;45.85;;;10.45;;
63818;SDS011;49970;54.976;73.248;2023-07-31T06:29:43;70.25;;;12.30;;
63818;SDS011;49970;54.976;73.248;2023-07-31T06:32:09;44.90;;;11.82;;
63818;SDS011;49970;54.976;73.248;2023-07-31T06:34:35;41.63;;;11.68;;
63818;SDS011;49970;54.976;73.248;2023-07-31T06:37:02;40.10;;;10.73;;
63818;SDS011;49970;54.976;73.248;2023-07-31T06:39:28;38.85;;;10.50;;
63818;SDS011;49970;54.976;73.248;2023-07-31T06:41:54;25.98;;;8.93;;
63818;SDS011;49970;54.976;73.248;2023-07-31T06:44:20;26.23;;;9.00;;
63818;SDS011;49970;54.976;73.248;2023-07-31T06:46:46;38.88;;;9.82;;
63818;SDS011;49970;54.976;73.248;2023-07-31T06:49:13;38.08;;;10.15;;
63818;SDS011;49970;54.976;73.248;2023-07-31T06:51:41;34.58;;;9.63;;
63818;SDS011;49970;54.976;73.248;2023-07-31T06:54:08;49.67;;;11.13;;
63818;SDS011;49970;54.976;73.248;2023-07-31T06:56:34;38.35;;;10.32;;
63818;SDS011;49970;54.976;73.248;2023-07-31T06:59:00;49.25;;;11.15;;
63818;SDS011;49970;54.976;73.248;2023-07-31T07:01:26;73.75;;;12.50;;
63818;SDS011;49970;54.976;73.248;2023-07-31T07:03:54;69.95;;;10.82;;
63818;SDS011;49970;54.976;73.248;2023-07-31T07:06:21;24.23;;;7.68;;
63818;SDS011;49970;54.976;73.248;2023-07-31T07:08:48;43.83;;;10.73;;
63818;SDS011;49970;54.976;73.248;2023-07-31T07:11:14;30.20;;;10.60;;
63818;SDS011;49970;54.976;73.248;2023-07-31T07:13:45;54.25;;;13.32;;
63818;SDS011;49970;54.976;73.248;2023-07-31T07:16:11;44.67;;;11.43;;
63818;SDS011;49970;54.976;73.248;2023-07-31T07:18:37;25.40;;;10.32;;
63818;SDS011;49970;54.976;73.248;2023-07-31T07:21:04;23.60;;;7.68;;
63818;SDS011;49970;54.976;73.248;2023-07-31T07:23:30;20.23;;;6.97;;
63818;SDS011;49970;54.976;73.248;2023-07-31T07:25:56;19.38;;;7.05;;
63818;SDS011;49970;54.976;73.248;2023-07-31T07:28:23;23.60;;;8.23;;
63818;SDS011;49970;54.976;73.248;2023-07-31T07:30:52;21.73;;;7.43;;
63818;SDS011;49970;54.976;73.248;2023-07-31T07:33:21;13.77;;;6.22;;
63818;SDS011;49970;54.976;73.248;2023-07-31T07:35:47;15.20;;;7.13;;
63818;SDS011;49970;54.976;73.248;2023-07-31T07:38:14;23.33;;;7.03;;
63818;SDS011;49970;54.976;73.248;2023-07-31T07:40:41;14.95;;;7.28;;
63818;SDS011;49970;54.976;73.248;2023-07-31T07:43:10;13.25;;;6.80;;
63818;SDS011;49970;54.976;73.248;2023-07-31T07:45:36;8.90;;;5.35;;
63818;SDS011;49970;54.976;73.248;2023-07-31T07:48:02;8.15;;;5.35;;
63818;SDS011;49970;54.976;73.248;2023-07-31T07:50:29;9.45;;;4.80;;
63818;SDS011;49970;54.976;73.248;2023-07-31T07:52:55;6.63;;;4.70;;
63818;SDS011;49970;54.976;73.248;2023-07-31T07:55:21;12.13;;;5.70;;
63818;SDS011;49970;54.976;73.248;2023-07-31T07:57:47;5.82;;;5.32;;
63818;SDS011;49970;54.976;73.248;2023-07-31T08:00:16;14.05;;;5.90;;
63818;SDS011;49970;54.976;73.248;2023-07-31T08:02:43;9.02;;;5.10;;
63818;SDS011;49970;54.976;73.248;2023-07-31T08:05:10;11.45;;;4.57;;
63818;SDS011;49970;54.976;73.248;2023-07-31T08:07:36;17.27;;;4.93;;
63818;SDS011;49970;54.976;73.248;2023-07-31T08:10:02;11.20;;;4.93;;
63818;SDS011;49970;54.976;73.248;2023-07-31T08:12:29;6.35;;;4.60;;
63818;SDS011;49970;54.976;73.248;2023-07-31T08:14:55;11.27;;;4.40;;
63818;SDS011;49970;54.976;73.248;2023-07-31T08:17:21;13.75;;;4.03;;
63818;SDS011;49970;54.976;73.248;2023-07-31T08:19:47;14.25;;;4.03;;
63818;SDS011;49970;54.976;73.248;2023-07-31T08:22:13;7.85;;;3.60;;
63818;SDS011;49970;54.976;73.248;2023-07-31T08:24:40;14.15;;;3.30;;
63818;SDS011;49970;54.976;73.248;2023-07-31T08:27:06;11.60;;;3.95;;
63818;SDS011;49970;54.976;73.248;2023-07-31T08:29:32;18.73;;;4.38;;
63818;SDS011;49970;54.976;73.248;2023-07-31T08:31:58;12.93;;;4.28;;
63818;SDS011;49970;54.976;73.248;2023-07-31T08:34:25;7.90;;;4.00;;
63818;SDS011;49970;54.976;73.248;2023-07-31T08:36:51;7.32;;;4.43;;
63818;SDS011;49970;54.976;73.248;2023-07-31T08:39:17;10.35;;;4.40;;
63818;SDS011;49970;54.976;73.248;2023-07-31T08:41:43;17.80;;;4.43;;
63818;SDS011;49970;54.976;73.248;2023-07-31T08:44:10;9.82;;;3.80;;
63818;SDS011;49970;54.976;73.248;2023-07-31T08:46:38;18.38;;;3.80;;
63818;SDS011;49970;54.976;73.248;2023-07-31T08:49:05;9.48;;;3.85;;
63818;SDS011;49970;54.976;73.248;2023-07-31T08:51:34;5.07;;;3.92;;
63818;SDS011;49970;54.976;73.248;2023-07-31T08:54:02;15.63;;;4.90;;
63818;SDS011;49970;54.976;73.248;2023-07-31T08:56:33;19.70;;;5.25;;
63818;SDS011;49970;54.976;73.248;2023-07-31T08:59:02;5.97;;;4.00;;
63818;SDS011;49970;54.976;73.248;2023-07-31T09:01:30;29.25;;;5.50;;
63818;SDS011;49970;54.976;73.248;2023-07-31T09:03:59;15.90;;;5.88;;
63818;SDS011;49970;54.976;73.248;2023-07-31T09:06:28;33.70;;;6.20;;
63818;SDS011;49970;54.976;73.248;2023-07-31T09:08:56;18.27;;;6.70;;
63818;SDS011;49970;54.976;73.248;2023-07-31T09:11:22;12.93;;;5.90;;
63818;SDS011;49970;54.976;73.248;2023-07-31T09:13:50;16.58;;;5.38;;
63818;SDS011;49970;54.976;73.248;2023-07-31T09:16:17;15.43;;;5.40;;
63818;SDS011;49970;54.976;73.248;2023-07-31T09:18:53;14.05;;;4.03;;
63818;SDS011;49970;54.976;73.248;2023-07-31T09:21:24;14.00;;;5.07;;
63818;SDS011;49970;54.976;73.248;2023-07-31T09:23:51;13.20;;;3.38;;
63818;SDS011;49970;54.976;73.248;2023-07-31T09:26:32;9.75;;;3.95;;
63818;SDS011;49970;54.976;73.248;2023-07-31T09:29:06;4.95;;;2.55;;
63818;SDS011;49970;54.976;73.248;2023-07-31T09:31:44;4.30;;;2.00;;
63818;SDS011;49970;54.976;73.248;2023-07-31T09:34:10;5.10;;;2.50;;
63818;SDS011;49970;54.976;73.248;2023-07-31T09:36:43;2.67;;;2.47;;
63818;SDS011;49970;54.976;73.248;2023-07-31T09:39:11;4.03;;;2.30;;
63818;SDS011;49970;54.976;73.248;2023-07-31T09:41:39;11.10;;;2.58;;
63818;SDS011;49970;54.976;73.248;2023-07-31T09:44:06;16.02;;;3.63;;
63818;SDS011;49970;54.976;73.248;2023-07-31T09:46:37;4.05;;;2.70;;
63818;SDS011;49970;54.976;73.248;2023-07-31T09:49:10;17.63;;;2.88;;
63818;SDS011;49970;54.976;73.248;2023-07-31T09:51:38;6.90;;;2.60;;
63818;SDS011;49970;54.976;73.248;2023-07-31T09:54:09;5.03;;;3.00;;
63818;SDS011;49970;54.976;73.248;2023-07-31T09:56:41;5.30;;;2.30;;
63818;SDS011;49970;54.976;73.248;2023-07-31T09:59:10;3.65;;;2.17;;
63818;SDS011;49970;54.976;73.248;2023-07-31T10:01:41;2.58;;;2.22;;
63818;SDS011;49970;54.976;73.248;2023-07-31T10:04:09;8.32;;;2.90;;
63818;SDS011;49970;54.976;73.248;2023-07-31T10:06:37;4.82;;;2.60;;
63818;SDS011;49970;54.976;73.248;2023-07-31T10:09:08;4.15;;;2.50;;
63818;SDS011;49970;54.976;73.248;2023-07-31T10:11:43;3.28;;;3.08;;
63818;SDS011;49970;54.976;73.248;2023-07-31T10:14:19;7.75;;;2.17;;
63818;SDS011;49970;54.976;73.248;2023-07-31T10:16:46;5.53;;;2.55;;
63818;SDS011;49970;54.976;73.248;2023-07-31T10:19:13;6.65;;;3.00;;
63818;SDS011;49970;54.976;73.248;2023-07-31T10:21:40;14.68;;;3.92;;
63818;SDS011;49970;54.976;73.248;2023-07-31T10:24:08;3.55;;;2.80;;
63818;SDS011;49970;54.976;73.248;2023-07-31T10:26:35;7.38;;;2.83;;
63818;SDS011;49970;54.976;73.248;2023-07-31T10:29:05;7.30;;;2.40;;
63818;SDS011;49970;54.976;73.248;2023-07-31T10:31:32;3.15;;;2.80;;
63818;SDS011;49970;54.976;73.248;2023-07-31T10:34:00;2.65;;;2.42;;
63818;SDS011;49970;54.976;73.248;2023-07-31T10:36:28;7.07;;;2.40;;
63818;SDS011;49970;54.976;73.248;2023-07-31T10:38:55;5.10;;;2.58;;
63818;SDS011;49970;54.976;73.248;2023-07-31T10:41:31;3.72;;;2.60;;
63818;SDS011;49970;54.976;73.248;2023-07-31T10:43:58;3.70;;;2.70;;
63818;SDS011;49970;54.976;73.248;2023-07-31T10:46:25;5.55;;;2.80;;
63818;SDS011;49970;54.976;73.248;2023-07-31T10:48:57;2.72;;;2.50;;
63818;SDS011;49970;54.976;73.248;2023-07-31T10:51:35;3.30;;;2.67;;
63818;SDS011;49970;54.976;73.248;2023-07-31T10:54:13;3.28;;;3.08;;
63818;SDS011;49970;54.976;73.248;2023-07-31T10:56:44;2.92;;;2.72;;
63818;SDS011;49970;54.976;73.248;2023-07-31T10:59:12;4.68;;;2.42;;
63818;SDS011;49970;54.976;73.248;2023-07-31T11:01:52;4.22;;;2.75;;
63818;SDS011;49970;54.976;73.248;2023-07-31T11:04:26;7.43;;;2.88;;
63818;SDS011;49970;54.976;73.248;2023-07-31T11:07:02;12.10;;;3.40;;
63818;SDS011;49970;54.976;73.248;2023-07-31T11:09:32;16.05;;;3.13;;
63818;SDS011;49970;54.976;73.248;2023-07-31T11:11:59;3.25;;;2.92;;
63818;SDS011;49970;54.976;73.248;2023-07-31T11:14:25;18.70;;;3.55;;
63818;SDS011;49970;54.976;73.248;2023-07-31T11:16:52;2.85;;;2.50;;
63818;SDS011;49970;54.976;73.248;2023-07-31T11:19:24;8.70;;;2.67;;
63818;SDS011;49970;54.976;73.248;2023-07-31T11:21:54;15.55;;;2.70;;
63818;SDS011;49970;54.976;73.248;2023-07-31T11:24:22;7.03;;;3.30;;
63818;SDS011;49970;54.976;73.248;2023-07-31T11:26:51;9.20;;;2.90;;
63818;SDS011;49970;54.976;73.248;2023-07-31T11:29:18;11.68;;;2.78;;
63818;SDS011;49970;54.976;73.248;2023-07-31T11:31:46;7.13;;;2.58;;
63818;SDS011;49970;54.976;73.248;2023-07-31T11:34:14;5.72;;;2.78;;
63818;SDS011;49970;54.976;73.248;2023-07-31T11:36:52;6.43;;;2.42;;
63818;SDS011;49970;54.976;73.248;2023-07-31T11:39:19;4.18;;;2.65;;
63818;SDS011;49970;54.976;73.248;2023-07-31T11:41:45;2.60;;;2.17;;
63818;SDS011;49970;54.976;73.248;2023-07-31T11:44:11;2.60;;;2.40;;
63818;SDS011;49970;54.976;73.248;2023-07-31T11:46:38;4.93;;;2.30;;
63818;SDS011;49970;54.976;73.248;2023-07-31T11:49:04;2.63;;;2.17;;
63818;SDS011;49970;54.976;73.248;2023-07-31T11:51:31;10.20;;;2.50;;
63818;SDS011;49970;54.976;73.248;2023-07-31T11:53:58;5.80;;;2.40;;
63818;SDS011;49970;54.976;73.248;2023-07-31T11:56:27;3.92;;;2.60;;
63818;SDS011;49970;54.976;73.248;2023-07-31T11:58:57;7.57;;;2.30;;
63818;SDS011;49970;54.976;73.248;2023-07-31T12:01:25;2.33;;;2.10;;
63818;SDS011;49970;54.976;73.248;2023-07-31T12:03:55;6.10;;;3.55;;
63818;SDS011;49970;54.976;73.248;2023-07-31T12:06:32;4.22;;;2.65;;
63818;SDS011;49970;54.976;73.248;2023-07-31T12:09:03;11.15;;;2.70;;
63818;SDS011;49970;54.976;73.248;2023-07-31T12:11:30;13.13;;;3.35;;
63818;SDS011;49970;54.976;73.248;2023-07-31T12:13:57;14.23;;;2.50;;
63818;SDS011;49970;54.976;73.248;2023-07-31T12:16:26;5.60;;;2.22;;
63818;SDS011;49970;54.976;73.248;2023-07-31T12:18:54;4.45;;;2.05;;
63818;SDS011;49970;54.976;73.248;2023-07-31T12:21:20;5.78;;;1.90;;
63818;SDS011;49970;54.976;73.248;2023-07-31T12:23:47;6.25;;;2.25;;
63818;SDS011;49970;54.976;73.248;2023-07-31T12:26:13;28.73;;;2.75;;
63818;SDS011;49970;54.976;73.248;2023-07-31T12:31:15;2.00;;;1.90;;
63818;SDS011;49970;54.976;73.248;2023-07-31T12:33:46;9.80;;;2.00;;
63818;SDS011;49970;54.976;73.248;2023-07-31T12:36:15;2.33;;;2.10;;
63818;SDS011;49970;54.976;73.248;2023-07-31T12:38:44;14.70;;;2.20;;
63818;SDS011;49970;54.976;73.248;2023-07-31T12:41:11;12.50;;;2.60;;
63818;SDS011;49970;54.976;73.248;2023-07-31T12:43:39;35.85;;;3.22;;
63818;SDS011;49970;54.976;73.248;2023-07-31T12:46:07;14.90;;;2.45;;
63818;SDS011;49970;54.976;73.248;2023-07-31T12:48:33;6.25;;;2.45;;
63818;SDS011;49970;54.976;73.248;2023-07-31T12:51:00;4.65;;;2.90;;
63818;SDS011;49970;54.976;73.248;2023-07-31T12:53:27;9.57;;;2.80;;
63818;SDS011;49970;54.976;73.248;2023-07-31T12:55:55;16.60;;;3.15;;
63818;SDS011;49970;54.976;73.248;2023-07-31T12:58:22;6.22;;;2.72;;
63818;SDS011;49970;54.976;73.248;2023-07-31T13:00:48;9.23;;;3.03;;
63818;SDS011;49970;54.976;73.248;2023-07-31T13:03:15;7.97;;;2.72;;
63818;SDS011;49970;54.976;73.248;2023-07-31T13:05:41;9.57;;;2.90;;
63818;SDS011;49970;54.976;73.248;2023-07-31T13:08:07;8.35;;;2.45;;
63818;SDS011;49970;54.976;73.248;2023-07-31T13:10:34;4.93;;;2.90;;
63818;SDS011;49970;54.976;73.248;2023-07-31T13:13:00;9.60;;;3.08;;
63818;SDS011;49970;54.976;73.248;2023-07-31T13:15:26;6.07;;;3.65;;
63818;SDS011;49970;54.976;73.248;2023-07-31T13:17:53;11.65;;;3.03;;
63818;SDS011;49970;54.976;73.248;2023-07-31T13:20:19;19.85;;;3.25;;
63818;SDS011;49970;54.976;73.248;2023-07-31T13:22:45;80.65;;;5.28;;
63818;SDS011;49970;54.976;73.248;2023-07-31T13:25:11;56.80;;;5.88;;
63818;SDS011;49970;54.976;73.248;2023-07-31T13:27:38;13.90;;;3.97;;
63818;SDS011;49970;54.976;73.248;2023-07-31T13:30:07;34.88;;;6.97;;
63818;SDS011;49970;54.976;73.248;2023-07-31T13:32:34;24.42;;;4.40;;
63818;SDS011;49970;54.976;73.248;2023-07-31T13:35:05;18.00;;;5.72;;
63818;SDS011;49970;54.976;73.248;2023-07-31T13:37:32;20.58;;;4.72;;
63818;SDS011;49970;54.976;73.248;2023-07-31T13:39:58;18.85;;;3.63;;
63818;SDS011;49970;54.976;73.248;2023-07-31T13:42:24;10.80;;;4.50;;
63818;SDS011;49970;54.976;73.248;2023-07-31T13:44:50;12.77;;;4.13;;
63818;SDS011;49970;54.976;73.248;2023-07-31T13:48:41;24.60;;;5.25;;
63818;SDS011;49970;54.976;73.248;2023-07-31T13:52:35;22.60;;;4.75;;
63818;SDS011;49970;54.976;73.248;2023-07-31T13:56:25;26.50;;;5.45;;
63818;SDS011;49970;54.976;73.248;2023-07-31T14:00:16;7.07;;;4.18;;
63818;SDS011;49970;54.976;73.248;2023-07-31T14:04:32;14.30;;;4.47;;
63818;SDS011;49970;54.976;73.248;2023-07-31T14:08:23;19.85;;;4.22;;
63818;SDS011;49970;54.976;73.248;2023-07-31T14:12:14;20.45;;;4.70;;
63818;SDS011;49970;54.976;73.248;2023-07-31T14:14:40;23.05;;;4.47;;
63818;SDS011;49970;54.976;73.248;2023-07-31T14:17:07;14.52;;;4.47;;
63818;SDS011;49970;54.976;73.248;2023-07-31T14:19:33;10.25;;;4.18;;
63818;SDS011;49970;54.976;73.248;2023-07-31T14:22:08;22.05;;;4.70;;
63818;SDS011;49970;54.976;73.248;2023-07-31T14:24:35;19.90;;;4.40;;
63818;SDS011;49970;54.976;73.248;2023-07-31T14:28:26;9.52;;;4.15;;
63818;SDS011;49970;54.976;73.248;2023-07-31T14:32:15;22.30;;;4.60;;
63818;SDS011;49970;54.976;73.248;2023-07-31T14:36:04;19.23;;;6.13;;
63818;SDS011;49970;54.976;73.248;2023-07-31T14:40:50;19.45;;;5.28;;
63818;SDS011;49970;54.976;73.248;2023-07-31T14:44:39;28.13;;;5.70;;
63818;SDS011;49970;54.976;73.248;2023-07-31T14:52:26;16.40;;;3.15;;
63818;SDS011;49970;54.976;73.248;2023-07-31T14:56:17;11.55;;;4.13;;
63818;SDS011;49970;54.976;73.248;2023-07-31T15:00:08;28.50;;;5.43;;
63818;SDS011;49970;54.976;73.248;2023-07-31T15:03:59;15.65;;;5.93;;
63818;SDS011;49970;54.976;73.248;2023-07-31T15:07:50;6.82;;;4.82;;
63818;SDS011;49970;54.976;73.248;2023-07-31T15:10:17;9.73;;;4.57;;